sensor_id;sensor_type;location;lat;lon;timestamp;P1;durP1;ratioP1;P2;durP2;ratioP2
52554;SDS011;38455;52.710;6.502;2023-05-07T00:00:02;21.77;;;16.77;;
52554;SDS011;38455;52.710;6.502;2023-05-07T00:02:32;24.27;;;16.83;;
52554;SDS011;38455;52.710;6.502;2023-05-07T00:04:58;21.92;;;15.50;;
52554;SDS011;38455;52.710;6.502;2023-05-07T00:07:24;25.63;;;17.48;;
52554;SDS011;38455;52.710;6.502;2023-05-07T00:09:49;23.23;;;16.00;;
52554;SDS011;38455;52.710;6.502;2023-05-07T00:12:15;23.70;;;16.70;;
52554;SDS011;38455;52.710;6.502;2023-05-07T00:14:41;25.17;;;16.05;;
52554;SDS011;38455;52.710;6.502;2023-05-07T00:17:06;20.95;;;15.80;;
52554;SDS011;38455;52.710;6.502;2023-05-07T00:19:32;20.92;;;14.75;;
52554;SDS011;38455;52.710;6.502;2023-05-07T00:21:58;20.85;;;14.48;;
52554;SDS011;38455;52.710;6.502;2023-05-07T00:24:24;22.73;;;14.55;;
52554;SDS011;38455;52.710;6.502;2023-05-07T00:26:49;19.55;;;13.77;;
52554;SDS011;38455;52.710;6.502;2023-05-07T00:29:15;20.40;;;13.43;;
52554;SDS011;38455;52.710;6.502;2023-05-07T00:31:41;18.20;;;13.57;;
52554;SDS011;38455;52.710;6.502;2023-05-07T00:34:06;18.75;;;13.05;;
52554;SDS011;38455;52.710;6.502;2023-05-07T00:36:32;18.65;;;13.07;;
52554;SDS011;38455;52.710;6.502;2023-05-07T00:38:59;17.33;;;12.15;;
52554;SDS011;38455;52.710;6.502;2023-05-07T00:41:27;17.60;;;12.00;;
52554;SDS011;38455;52.710;6.502;2023-05-07T00:43:52;19.10;;;12.82;;
52554;SDS011;38455;52.710;6.502;2023-05-07T00:46:19;18.67;;;13.07;;
52554;SDS011;38455;52.710;6.502;2023-05-07T00:48:46;17.42;;;11.80;;
52554;SDS011;38455;52.710;6.502;2023-05-07T00:51:13;18.58;;;12.52;;
52554;SDS011;38455;52.710;6.502;2023-05-07T00:53:39;18.48;;;11.85;;
52554;SDS011;38455;52.710;6.502;2023-05-07T00:56:05;17.08;;;12.45;;
52554;SDS011;38455;52.710;6.502;2023-05-07T00:58:31;26.02;;;12.80;;
52554;SDS011;38455;52.710;6.502;2023-05-07T01:00:59;16.88;;;11.88;;
52554;SDS011;38455;52.710;6.502;2023-05-07T01:03:25;19.42;;;12.68;;
52554;SDS011;38455;52.710;6.502;2023-05-07T01:05:51;20.95;;;12.48;;
52554;SDS011;38455;52.710;6.502;2023-05-07T01:08:18;16.75;;;13.15;;
52554;SDS011;38455;52.710;6.502;2023-05-07T01:10:45;15.35;;;11.55;;
52554;SDS011;38455;52.710;6.502;2023-05-07T01:13:12;17.60;;;12.27;;
52554;SDS011;38455;52.710;6.502;2023-05-07T01:15:39;19.40;;;12.80;;
52554;SDS011;38455;52.710;6.502;2023-05-07T01:18:06;19.65;;;13.10;;
52554;SDS011;38455;52.710;6.502;2023-05-07T01:20:32;18.08;;;12.85;;
52554;SDS011;38455;52.710;6.502;2023-05-07T01:22:58;20.90;;;13.23;;
52554;SDS011;38455;52.710;6.502;2023-05-07T01:25:25;21.38;;;12.95;;
52554;SDS011;38455;52.710;6.502;2023-05-07T01:27:51;19.63;;;13.70;;
52554;SDS011;38455;52.710;6.502;2023-05-07T01:30:16;23.10;;;14.70;;
52554;SDS011;38455;52.710;6.502;2023-05-07T01:32:52;20.70;;;13.50;;
52554;SDS011;38455;52.710;6.502;2023-05-07T01:35:28;20.98;;;13.90;;
52554;SDS011;38455;52.710;6.502;2023-05-07T01:37:57;21.50;;;13.80;;
52554;SDS011;38455;52.710;6.502;2023-05-07T01:40:24;20.35;;;13.95;;
52554;SDS011;38455;52.710;6.502;2023-05-07T01:42:50;22.45;;;15.10;;
52554;SDS011;38455;52.710;6.502;2023-05-07T01:45:16;22.15;;;15.50;;
52554;SDS011;38455;52.710;6.502;2023-05-07T01:47:42;20.35;;;15.32;;
52554;SDS011;38455;52.710;6.502;2023-05-07T01:50:09;25.42;;;17.45;;
52554;SDS011;38455;52.710;6.502;2023-05-07T01:52:36;25.33;;;16.13;;
52554;SDS011;38455;52.710;6.502;2023-05-07T01:55:05;25.77;;;16.83;;
52554;SDS011;38455;52.710;6.502;2023-05-07T01:57:31;23.17;;;16.20;;
52554;SDS011;38455;52.710;6.502;2023-05-07T01:59:57;26.77;;;18.20;;
52554;SDS011;38455;52.710;6.502;2023-05-07T02:02:22;28.58;;;17.15;;
52554;SDS011;38455;52.710;6.502;2023-05-07T02:04:48;22.80;;;17.17;;
52554;SDS011;38455;52.710;6.502;2023-05-07T02:07:14;24.40;;;17.88;;
52554;SDS011;38455;52.710;6.502;2023-05-07T02:09:40;23.40;;;16.88;;
52554;SDS011;38455;52.710;6.502;2023-05-07T02:12:06;23.10;;;17.20;;
52554;SDS011;38455;52.710;6.502;2023-05-07T02:14:31;24.48;;;17.40;;
52554;SDS011;38455;52.710;6.502;2023-05-07T02:16:57;26.38;;;17.92;;
52554;SDS011;38455;52.710;6.502;2023-05-07T02:19:23;25.30;;;18.02;;
52554;SDS011;38455;52.710;6.502;2023-05-07T02:21:48;23.27;;;17.08;;
52554;SDS011;38455;52.710;6.502;2023-05-07T02:24:14;26.02;;;19.00;;
52554;SDS011;38455;52.710;6.502;2023-05-07T02:26:40;26.77;;;18.67;;
52554;SDS011;38455;52.710;6.502;2023-05-07T02:29:06;23.20;;;17.98;;
52554;SDS011;38455;52.710;6.502;2023-05-07T02:31:32;24.05;;;17.15;;
52554;SDS011;38455;52.710;6.502;2023-05-07T02:33:59;29.48;;;19.42;;
52554;SDS011;38455;52.710;6.502;2023-05-07T02:36:25;26.33;;;18.75;;
52554;SDS011;38455;52.710;6.502;2023-05-07T02:38:51;23.92;;;18.42;;
52554;SDS011;38455;52.710;6.502;2023-05-07T02:41:17;27.02;;;19.02;;
52554;SDS011;38455;52.710;6.502;2023-05-07T02:43:43;25.83;;;19.15;;
52554;SDS011;38455;52.710;6.502;2023-05-07T02:46:08;28.45;;;18.80;;
52554;SDS011;38455;52.710;6.502;2023-05-07T02:48:34;27.05;;;19.58;;
52554;SDS011;38455;52.710;6.502;2023-05-07T02:51:00;26.88;;;19.40;;
52554;SDS011;38455;52.710;6.502;2023-05-07T02:53:27;32.22;;;19.08;;
52554;SDS011;38455;52.710;6.502;2023-05-07T02:55:56;32.53;;;20.25;;
52554;SDS011;38455;52.710;6.502;2023-05-07T02:58:22;31.50;;;21.20;;
52554;SDS011;38455;52.710;6.502;2023-05-07T03:00:47;29.23;;;19.77;;
52554;SDS011;38455;52.710;6.502;2023-05-07T03:03:13;29.77;;;20.63;;
52554;SDS011;38455;52.710;6.502;2023-05-07T03:05:39;30.25;;;20.05;;
52554;SDS011;38455;52.710;6.502;2023-05-07T03:08:05;33.25;;;20.85;;
52554;SDS011;38455;52.710;6.502;2023-05-07T03:10:31;31.13;;;20.75;;
52554;SDS011;38455;52.710;6.502;2023-05-07T03:12:56;33.97;;;20.55;;
52554;SDS011;38455;52.710;6.502;2023-05-07T03:15:22;32.75;;;21.27;;
52554;SDS011;38455;52.710;6.502;2023-05-07T03:17:48;29.65;;;20.40;;
52554;SDS011;38455;52.710;6.502;2023-05-07T03:20:13;30.55;;;21.98;;
52554;SDS011;38455;52.710;6.502;2023-05-07T03:22:39;31.95;;;22.35;;
52554;SDS011;38455;52.710;6.502;2023-05-07T03:25:06;32.22;;;20.48;;
52554;SDS011;38455;52.710;6.502;2023-05-07T03:27:32;31.38;;;21.17;;
52554;SDS011;38455;52.710;6.502;2023-05-07T03:29:57;31.60;;;22.52;;
52554;SDS011;38455;52.710;6.502;2023-05-07T03:32:23;34.58;;;21.55;;
52554;SDS011;38455;52.710;6.502;2023-05-07T03:34:49;35.25;;;23.65;;
52554;SDS011;38455;52.710;6.502;2023-05-07T03:37:15;37.03;;;23.60;;
52554;SDS011;38455;52.710;6.502;2023-05-07T03:39:40;39.17;;;24.70;;
52554;SDS011;38455;52.710;6.502;2023-05-07T03:42:06;38.45;;;24.42;;
52554;SDS011;38455;52.710;6.502;2023-05-07T03:44:32;32.75;;;23.23;;
52554;SDS011;38455;52.710;6.502;2023-05-07T03:46:57;36.20;;;24.77;;
52554;SDS011;38455;52.710;6.502;2023-05-07T03:49:23;32.60;;;23.55;;
52554;SDS011;38455;52.710;6.502;2023-05-07T03:51:49;40.08;;;26.50;;
52554;SDS011;38455;52.710;6.502;2023-05-07T03:54:14;35.33;;;24.15;;
52554;SDS011;38455;52.710;6.502;2023-05-07T03:56:40;38.97;;;24.73;;
52554;SDS011;38455;52.710;6.502;2023-05-07T03:59:06;38.53;;;25.05;;
52554;SDS011;38455;52.710;6.502;2023-05-07T04:01:31;40.05;;;25.83;;
52554;SDS011;38455;52.710;6.502;2023-05-07T04:03:57;41.22;;;26.10;;
52554;SDS011;38455;52.710;6.502;2023-05-07T04:06:23;42.45;;;26.50;;
52554;SDS011;38455;52.710;6.502;2023-05-07T04:08:49;42.60;;;27.05;;
52554;SDS011;38455;52.710;6.502;2023-05-07T04:11:15;42.88;;;28.13;;
52554;SDS011;38455;52.710;6.502;2023-05-07T04:13:40;36.95;;;26.13;;
52554;SDS011;38455;52.710;6.502;2023-05-07T04:16:06;45.00;;;27.83;;
52554;SDS011;38455;52.710;6.502;2023-05-07T04:18:31;43.63;;;26.25;;
52554;SDS011;38455;52.710;6.502;2023-05-07T04:20:57;39.50;;;26.73;;
52554;SDS011;38455;52.710;6.502;2023-05-07T04:23:23;41.42;;;27.48;;
52554;SDS011;38455;52.710;6.502;2023-05-07T04:25:48;45.00;;;26.60;;
52554;SDS011;38455;52.710;6.502;2023-05-07T04:28:15;45.28;;;29.20;;
52554;SDS011;38455;52.710;6.502;2023-05-07T04:30:40;43.30;;;28.42;;
52554;SDS011;38455;52.710;6.502;2023-05-07T04:33:06;40.60;;;27.67;;
52554;SDS011;38455;52.710;6.502;2023-05-07T04:35:32;44.25;;;28.50;;
52554;SDS011;38455;52.710;6.502;2023-05-07T04:37:58;43.50;;;29.02;;
52554;SDS011;38455;52.710;6.502;2023-05-07T04:40:24;46.22;;;29.75;;
52554;SDS011;38455;52.710;6.502;2023-05-07T04:42:50;41.28;;;27.30;;
52554;SDS011;38455;52.710;6.502;2023-05-07T04:45:16;44.80;;;27.98;;
52554;SDS011;38455;52.710;6.502;2023-05-07T04:47:42;37.72;;;25.92;;
52554;SDS011;38455;52.710;6.502;2023-05-07T04:50:07;42.92;;;27.38;;
52554;SDS011;38455;52.710;6.502;2023-05-07T04:52:33;40.17;;;26.27;;
52554;SDS011;38455;52.710;6.502;2023-05-07T04:54:59;41.40;;;26.27;;
52554;SDS011;38455;52.710;6.502;2023-05-07T04:57:26;42.50;;;28.02;;
52554;SDS011;38455;52.710;6.502;2023-05-07T04:59:52;41.15;;;26.75;;
52554;SDS011;38455;52.710;6.502;2023-05-07T05:02:18;43.10;;;27.25;;
52554;SDS011;38455;52.710;6.502;2023-05-07T05:04:44;51.58;;;27.05;;
52554;SDS011;38455;52.710;6.502;2023-05-07T05:07:09;41.67;;;27.13;;
52554;SDS011;38455;52.710;6.502;2023-05-07T05:09:35;38.20;;;26.45;;
52554;SDS011;38455;52.710;6.502;2023-05-07T05:12:00;39.85;;;26.52;;
52554;SDS011;38455;52.710;6.502;2023-05-07T05:14:26;36.90;;;25.10;;
52554;SDS011;38455;52.710;6.502;2023-05-07T05:16:52;38.78;;;26.27;;
52554;SDS011;38455;52.710;6.502;2023-05-07T05:19:17;38.80;;;25.98;;
52554;SDS011;38455;52.710;6.502;2023-05-07T05:21:43;36.95;;;24.80;;
52554;SDS011;38455;52.710;6.502;2023-05-07T05:24:09;37.00;;;25.80;;
52554;SDS011;38455;52.710;6.502;2023-05-07T05:26:34;36.58;;;24.58;;
52554;SDS011;38455;52.710;6.502;2023-05-07T05:29:00;35.90;;;24.90;;
52554;SDS011;38455;52.710;6.502;2023-05-07T05:31:26;31.90;;;23.05;;
52554;SDS011;38455;52.710;6.502;2023-05-07T05:33:51;34.15;;;23.52;;
52554;SDS011;38455;52.710;6.502;2023-05-07T05:36:17;39.38;;;24.70;;
52554;SDS011;38455;52.710;6.502;2023-05-07T05:38:43;35.10;;;24.60;;
52554;SDS011;38455;52.710;6.502;2023-05-07T05:41:09;35.00;;;23.88;;
52554;SDS011;38455;52.710;6.502;2023-05-07T05:43:35;32.67;;;23.00;;
52554;SDS011;38455;52.710;6.502;2023-05-07T05:46:01;33.33;;;23.20;;
52554;SDS011;38455;52.710;6.502;2023-05-07T05:48:28;34.97;;;23.45;;
52554;SDS011;38455;52.710;6.502;2023-05-07T05:50:54;34.88;;;23.05;;
52554;SDS011;38455;52.710;6.502;2023-05-07T05:53:20;33.88;;;23.98;;
52554;SDS011;38455;52.710;6.502;2023-05-07T05:55:45;30.90;;;22.52;;
52554;SDS011;38455;52.710;6.502;2023-05-07T05:58:11;33.15;;;21.60;;
52554;SDS011;38455;52.710;6.502;2023-05-07T06:00:37;30.30;;;21.27;;
52554;SDS011;38455;52.710;6.502;2023-05-07T06:03:03;33.10;;;21.95;;
52554;SDS011;38455;52.710;6.502;2023-05-07T06:05:28;30.42;;;21.77;;
52554;SDS011;38455;52.710;6.502;2023-05-07T06:07:54;30.38;;;21.30;;
52554;SDS011;38455;52.710;6.502;2023-05-07T06:10:20;29.23;;;22.17;;
52554;SDS011;38455;52.710;6.502;2023-05-07T06:12:45;30.30;;;21.85;;
52554;SDS011;38455;52.710;6.502;2023-05-07T06:15:11;36.53;;;22.92;;
52554;SDS011;38455;52.710;6.502;2023-05-07T06:17:37;32.47;;;22.05;;
52554;SDS011;38455;52.710;6.502;2023-05-07T06:20:02;37.83;;;23.65;;
52554;SDS011;38455;52.710;6.502;2023-05-07T06:22:28;31.25;;;22.63;;
52554;SDS011;38455;52.710;6.502;2023-05-07T06:24:54;33.38;;;22.13;;
52554;SDS011;38455;52.710;6.502;2023-05-07T06:27:20;36.03;;;23.85;;
52554;SDS011;38455;52.710;6.502;2023-05-07T06:29:47;30.27;;;22.02;;
52554;SDS011;38455;52.710;6.502;2023-05-07T06:32:13;33.38;;;22.73;;
52554;SDS011;38455;52.710;6.502;2023-05-07T06:34:40;35.50;;;22.50;;
52554;SDS011;38455;52.710;6.502;2023-05-07T06:37:06;33.42;;;23.15;;
52554;SDS011;38455;52.710;6.502;2023-05-07T06:39:32;33.92;;;23.45;;
52554;SDS011;38455;52.710;6.502;2023-05-07T06:41:58;31.48;;;22.35;;
52554;SDS011;38455;52.710;6.502;2023-05-07T06:44:24;33.42;;;23.75;;
52554;SDS011;38455;52.710;6.502;2023-05-07T06:46:50;36.03;;;24.38;;
52554;SDS011;38455;52.710;6.502;2023-05-07T06:49:16;36.85;;;24.52;;
52554;SDS011;38455;52.710;6.502;2023-05-07T06:51:41;34.20;;;23.23;;
52554;SDS011;38455;52.710;6.502;2023-05-07T06:54:07;34.75;;;22.90;;
52554;SDS011;38455;52.710;6.502;2023-05-07T06:56:33;35.95;;;23.13;;
52554;SDS011;38455;52.710;6.502;2023-05-07T06:58:59;31.92;;;23.02;;
52554;SDS011;38455;52.710;6.502;2023-05-07T07:01:25;35.42;;;24.08;;
52554;SDS011;38455;52.710;6.502;2023-05-07T07:03:51;35.47;;;24.95;;
52554;SDS011;38455;52.710;6.502;2023-05-07T07:06:17;31.00;;;22.60;;
52554;SDS011;38455;52.710;6.502;2023-05-07T07:08:43;36.53;;;24.23;;
52554;SDS011;38455;52.710;6.502;2023-05-07T07:11:09;35.28;;;21.70;;
52554;SDS011;38455;52.710;6.502;2023-05-07T07:13:35;31.58;;;22.73;;
52554;SDS011;38455;52.710;6.502;2023-05-07T07:16:01;30.42;;;22.55;;
52554;SDS011;38455;52.710;6.502;2023-05-07T07:18:27;30.08;;;21.83;;
52554;SDS011;38455;52.710;6.502;2023-05-07T07:20:53;32.53;;;22.52;;
52554;SDS011;38455;52.710;6.502;2023-05-07T07:23:19;34.60;;;21.90;;
52554;SDS011;38455;52.710;6.502;2023-05-07T07:25:45;33.83;;;21.55;;
52554;SDS011;38455;52.710;6.502;2023-05-07T07:28:11;34.72;;;23.95;;
52554;SDS011;38455;52.710;6.502;2023-05-07T07:30:37;33.25;;;22.88;;
52554;SDS011;38455;52.710;6.502;2023-05-07T07:33:03;31.60;;;22.13;;
52554;SDS011;38455;52.710;6.502;2023-05-07T07:35:30;29.73;;;22.23;;
52554;SDS011;38455;52.710;6.502;2023-05-07T07:37:57;29.98;;;21.00;;
52554;SDS011;38455;52.710;6.502;2023-05-07T07:40:23;32.38;;;21.52;;
52554;SDS011;38455;52.710;6.502;2023-05-07T07:42:50;30.52;;;21.48;;
52554;SDS011;38455;52.710;6.502;2023-05-07T07:45:16;31.90;;;22.73;;
52554;SDS011;38455;52.710;6.502;2023-05-07T07:47:41;28.33;;;21.77;;
52554;SDS011;38455;52.710;6.502;2023-05-07T07:50:07;27.48;;;21.67;;
52554;SDS011;38455;52.710;6.502;2023-05-07T07:52:33;29.85;;;22.55;;
52554;SDS011;38455;52.710;6.502;2023-05-07T07:55:00;31.60;;;22.42;;
52554;SDS011;38455;52.710;6.502;2023-05-07T07:57:26;33.30;;;21.88;;
52554;SDS011;38455;52.710;6.502;2023-05-07T07:59:51;29.23;;;21.63;;
52554;SDS011;38455;52.710;6.502;2023-05-07T08:02:17;28.38;;;21.10;;
52554;SDS011;38455;52.710;6.502;2023-05-07T08:04:43;32.65;;;22.17;;
52554;SDS011;38455;52.710;6.502;2023-05-07T08:07:12;27.88;;;21.13;;
52554;SDS011;38455;52.710;6.502;2023-05-07T08:09:38;25.85;;;20.48;;
52554;SDS011;38455;52.710;6.502;2023-05-07T08:12:06;32.13;;;21.27;;
52554;SDS011;38455;52.710;6.502;2023-05-07T08:14:32;27.73;;;21.63;;
52554;SDS011;38455;52.710;6.502;2023-05-07T08:16:58;28.63;;;20.48;;
52554;SDS011;38455;52.710;6.502;2023-05-07T08:19:24;29.33;;;20.83;;
52554;SDS011;38455;52.710;6.502;2023-05-07T08:21:50;30.38;;;22.17;;
52554;SDS011;38455;52.710;6.502;2023-05-07T08:24:16;27.55;;;19.67;;
52554;SDS011;38455;52.710;6.502;2023-05-07T08:26:43;28.33;;;22.50;;
52554;SDS011;38455;52.710;6.502;2023-05-07T08:29:09;26.17;;;19.52;;
52554;SDS011;38455;52.710;6.502;2023-05-07T08:31:35;28.75;;;22.15;;
52554;SDS011;38455;52.710;6.502;2023-05-07T08:34:00;26.67;;;20.38;;
52554;SDS011;38455;52.710;6.502;2023-05-07T08:36:26;27.30;;;19.95;;
52554;SDS011;38455;52.710;6.502;2023-05-07T08:38:52;28.63;;;19.92;;
52554;SDS011;38455;52.710;6.502;2023-05-07T08:41:18;25.75;;;19.13;;
52554;SDS011;38455;52.710;6.502;2023-05-07T08:43:47;24.42;;;19.33;;
52554;SDS011;38455;52.710;6.502;2023-05-07T08:46:18;23.92;;;19.15;;
52554;SDS011;38455;52.710;6.502;2023-05-07T08:48:49;25.02;;;20.02;;
52554;SDS011;38455;52.710;6.502;2023-05-07T08:51:18;25.70;;;19.75;;
52554;SDS011;38455;52.710;6.502;2023-05-07T08:53:46;26.75;;;20.05;;
52554;SDS011;38455;52.710;6.502;2023-05-07T08:56:16;25.38;;;19.92;;
52554;SDS011;38455;52.710;6.502;2023-05-07T08:58:42;28.30;;;20.20;;
52554;SDS011;38455;52.710;6.502;2023-05-07T09:01:09;28.65;;;19.67;;
52554;SDS011;38455;52.710;6.502;2023-05-07T09:03:38;26.67;;;19.20;;
52554;SDS011;38455;52.710;6.502;2023-05-07T09:06:05;24.88;;;18.20;;
52554;SDS011;38455;52.710;6.502;2023-05-07T09:08:32;25.80;;;19.23;;
52554;SDS011;38455;52.710;6.502;2023-05-07T09:10:58;23.73;;;18.52;;
52554;SDS011;38455;52.710;6.502;2023-05-07T09:13:25;24.85;;;19.13;;
52554;SDS011;38455;52.710;6.502;2023-05-07T09:15:52;33.53;;;20.77;;
52554;SDS011;38455;52.710;6.502;2023-05-07T09:18:18;22.52;;;18.17;;
52554;SDS011;38455;52.710;6.502;2023-05-07T09:20:43;23.83;;;18.55;;
52554;SDS011;38455;52.710;6.502;2023-05-07T09:23:09;22.50;;;18.08;;
52554;SDS011;38455;52.710;6.502;2023-05-07T09:25:35;22.33;;;18.00;;
52554;SDS011;38455;52.710;6.502;2023-05-07T09:28:02;23.55;;;19.20;;
52554;SDS011;38455;52.710;6.502;2023-05-07T09:30:29;24.85;;;18.58;;
52554;SDS011;38455;52.710;6.502;2023-05-07T09:32:59;22.00;;;18.30;;
52554;SDS011;38455;52.710;6.502;2023-05-07T09:35:26;21.98;;;18.05;;
52554;SDS011;38455;52.710;6.502;2023-05-07T09:37:58;21.50;;;17.38;;
52554;SDS011;38455;52.710;6.502;2023-05-07T09:40:28;20.02;;;17.33;;
52554;SDS011;38455;52.710;6.502;2023-05-07T09:42:55;23.45;;;18.40;;
52554;SDS011;38455;52.710;6.502;2023-05-07T09:45:21;21.58;;;17.77;;
52554;SDS011;38455;52.710;6.502;2023-05-07T09:47:53;19.45;;;17.35;;
52554;SDS011;38455;52.710;6.502;2023-05-07T09:50:22;21.75;;;17.38;;
52554;SDS011;38455;52.710;6.502;2023-05-07T09:52:53;21.00;;;16.90;;
52554;SDS011;38455;52.710;6.502;2023-05-07T09:55:20;20.30;;;17.02;;
52554;SDS011;38455;52.710;6.502;2023-05-07T09:57:50;21.17;;;18.13;;
52554;SDS011;38455;52.710;6.502;2023-05-07T10:00:21;18.27;;;15.98;;
52554;SDS011;38455;52.710;6.502;2023-05-07T10:02:48;21.20;;;15.85;;
52554;SDS011;38455;52.710;6.502;2023-05-07T10:05:17;18.90;;;15.93;;
52554;SDS011;38455;52.710;6.502;2023-05-07T10:07:44;20.15;;;17.90;;
52554;SDS011;38455;52.710;6.502;2023-05-07T10:10:10;21.05;;;16.60;;
52554;SDS011;38455;52.710;6.502;2023-05-07T10:12:37;19.38;;;16.88;;
52554;SDS011;38455;52.710;6.502;2023-05-07T10:15:08;19.98;;;17.83;;
52554;SDS011;38455;52.710;6.502;2023-05-07T10:17:38;18.95;;;15.68;;
52554;SDS011;38455;52.710;6.502;2023-05-07T10:20:07;18.02;;;14.68;;
52554;SDS011;38455;52.710;6.502;2023-05-07T10:22:44;18.13;;;15.15;;
52554;SDS011;38455;52.710;6.502;2023-05-07T10:25:18;17.35;;;15.13;;
52554;SDS011;38455;52.710;6.502;2023-05-07T10:27:47;20.52;;;16.23;;
52554;SDS011;38455;52.710;6.502;2023-05-07T10:35:19;18.95;;;15.82;;
52554;SDS011;38455;52.710;6.502;2023-05-07T10:37:48;15.85;;;14.18;;
52554;SDS011;38455;52.710;6.502;2023-05-07T10:40:14;17.83;;;14.93;;
52554;SDS011;38455;52.710;6.502;2023-05-07T10:42:52;18.73;;;15.20;;
52554;SDS011;38455;52.710;6.502;2023-05-07T10:45:20;16.02;;;13.95;;
52554;SDS011;38455;52.710;6.502;2023-05-07T10:50:33;18.33;;;14.07;;
52554;SDS011;38455;52.710;6.502;2023-05-07T10:55:44;18.38;;;15.50;;
52554;SDS011;38455;52.710;6.502;2023-05-07T10:58:22;16.42;;;14.57;;
52554;SDS011;38455;52.710;6.502;2023-05-07T11:00:56;16.48;;;14.75;;
52554;SDS011;38455;52.710;6.502;2023-05-07T11:03:24;16.77;;;14.07;;
52554;SDS011;38455;52.710;6.502;2023-05-07T11:11:17;14.63;;;13.00;;
52554;SDS011;38455;52.710;6.502;2023-05-07T11:13:46;14.77;;;13.20;;
52554;SDS011;38455;52.710;6.502;2023-05-07T11:16:16;14.48;;;12.20;;
52554;SDS011;38455;52.710;6.502;2023-05-07T11:18:50;15.38;;;12.52;;
52554;SDS011;38455;52.710;6.502;2023-05-07T11:24:02;14.85;;;13.25;;
52554;SDS011;38455;52.710;6.502;2023-05-07T11:26:30;14.73;;;13.02;;
52554;SDS011;38455;52.710;6.502;2023-05-07T11:29:10;15.55;;;13.25;;
52554;SDS011;38455;52.710;6.502;2023-05-07T11:31:36;14.50;;;12.82;;
52554;SDS011;38455;52.710;6.502;2023-05-07T11:34:03;13.95;;;12.45;;
52554;SDS011;38455;52.710;6.502;2023-05-07T11:36:30;14.00;;;11.93;;
52554;SDS011;38455;52.710;6.502;2023-05-07T11:38:57;15.70;;;12.52;;
52554;SDS011;38455;52.710;6.502;2023-05-07T11:41:32;14.38;;;12.90;;
52554;SDS011;38455;52.710;6.502;2023-05-07T11:44:04;14.60;;;13.10;;
52554;SDS011;38455;52.710;6.502;2023-05-07T11:46:30;14.75;;;12.73;;
52554;SDS011;38455;52.710;6.502;2023-05-07T11:48:56;14.80;;;12.43;;
52554;SDS011;38455;52.710;6.502;2023-05-07T11:51:25;14.65;;;12.45;;
52554;SDS011;38455;52.710;6.502;2023-05-07T11:53:52;14.77;;;12.02;;
52554;SDS011;38455;52.710;6.502;2023-05-07T11:56:18;13.10;;;11.75;;
52554;SDS011;38455;52.710;6.502;2023-05-07T11:58:45;14.77;;;12.35;;
52554;SDS011;38455;52.710;6.502;2023-05-07T12:01:12;13.25;;;11.88;;
52554;SDS011;38455;52.710;6.502;2023-05-07T12:03:40;14.45;;;12.95;;
52554;SDS011;38455;52.710;6.502;2023-05-07T12:06:08;18.88;;;13.30;;
52554;SDS011;38455;52.710;6.502;2023-05-07T12:08:38;14.80;;;13.23;;
52554;SDS011;38455;52.710;6.502;2023-05-07T12:11:09;17.58;;;14.05;;
52554;SDS011;38455;52.710;6.502;2023-05-07T12:13:46;15.75;;;13.57;;
52554;SDS011;38455;52.710;6.502;2023-05-07T12:16:12;15.65;;;12.55;;
52554;SDS011;38455;52.710;6.502;2023-05-07T12:18:38;16.17;;;14.18;;
52554;SDS011;38455;52.710;6.502;2023-05-07T12:21:05;17.25;;;14.50;;
52554;SDS011;38455;52.710;6.502;2023-05-07T12:23:31;17.10;;;14.00;;
52554;SDS011;38455;52.710;6.502;2023-05-07T12:25:58;16.38;;;13.38;;
52554;SDS011;38455;52.710;6.502;2023-05-07T12:28:24;15.27;;;13.10;;
52554;SDS011;38455;52.710;6.502;2023-05-07T12:30:50;18.02;;;13.95;;
52554;SDS011;38455;52.710;6.502;2023-05-07T12:33:17;18.08;;;14.98;;
52554;SDS011;38455;52.710;6.502;2023-05-07T12:35:47;17.38;;;14.60;;
52554;SDS011;38455;52.710;6.502;2023-05-07T12:38:13;17.45;;;13.27;;
52554;SDS011;38455;52.710;6.502;2023-05-07T12:40:45;15.40;;;13.70;;
52554;SDS011;38455;52.710;6.502;2023-05-07T12:43:19;17.10;;;14.18;;
52554;SDS011;38455;52.710;6.502;2023-05-07T12:45:46;18.85;;;14.73;;
52554;SDS011;38455;52.710;6.502;2023-05-07T12:48:13;15.82;;;14.07;;
52554;SDS011;38455;52.710;6.502;2023-05-07T12:50:39;15.63;;;13.10;;
52554;SDS011;38455;52.710;6.502;2023-05-07T12:53:05;17.45;;;15.55;;
52554;SDS011;38455;52.710;6.502;2023-05-07T12:55:39;15.32;;;13.35;;
52554;SDS011;38455;52.710;6.502;2023-05-07T12:58:07;17.73;;;13.85;;
52554;SDS011;38455;52.710;6.502;2023-05-07T13:00:36;17.80;;;13.70;;
52554;SDS011;38455;52.710;6.502;2023-05-07T13:03:03;16.98;;;15.07;;
52554;SDS011;38455;52.710;6.502;2023-05-07T13:05:30;16.08;;;14.02;;
52554;SDS011;38455;52.710;6.502;2023-05-07T13:07:56;18.90;;;15.52;;
52554;SDS011;38455;52.710;6.502;2023-05-07T13:10:22;17.08;;;14.50;;
52554;SDS011;38455;52.710;6.502;2023-05-07T13:12:49;17.27;;;13.73;;
52554;SDS011;38455;52.710;6.502;2023-05-07T13:15:15;16.23;;;14.05;;
52554;SDS011;38455;52.710;6.502;2023-05-07T13:17:41;17.08;;;13.73;;
52554;SDS011;38455;52.710;6.502;2023-05-07T13:20:08;18.30;;;14.48;;
52554;SDS011;38455;52.710;6.502;2023-05-07T13:22:35;17.58;;;14.13;;
52554;SDS011;38455;52.710;6.502;2023-05-07T13:25:01;17.13;;;15.00;;
52554;SDS011;38455;52.710;6.502;2023-05-07T13:27:26;18.65;;;14.93;;
52554;SDS011;38455;52.710;6.502;2023-05-07T13:29:52;17.55;;;14.70;;
52554;SDS011;38455;52.710;6.502;2023-05-07T13:32:18;18.10;;;14.43;;
52554;SDS011;38455;52.710;6.502;2023-05-07T13:34:43;17.55;;;13.13;;
52554;SDS011;38455;52.710;6.502;2023-05-07T13:37:09;18.85;;;14.32;;
52554;SDS011;38455;52.710;6.502;2023-05-07T13:39:35;16.95;;;14.18;;
52554;SDS011;38455;52.710;6.502;2023-05-07T13:42:01;16.40;;;13.52;;
52554;SDS011;38455;52.710;6.502;2023-05-07T13:44:27;16.95;;;13.32;;
52554;SDS011;38455;52.710;6.502;2023-05-07T13:46:52;21.20;;;14.88;;
52554;SDS011;38455;52.710;6.502;2023-05-07T13:49:18;20.25;;;15.40;;
52554;SDS011;38455;52.710;6.502;2023-05-07T13:51:44;19.05;;;14.98;;
52554;SDS011;38455;52.710;6.502;2023-05-07T13:54:10;19.25;;;16.10;;
52554;SDS011;38455;52.710;6.502;2023-05-07T13:56:36;18.98;;;15.75;;
52554;SDS011;38455;52.710;6.502;2023-05-07T13:59:01;19.73;;;15.80;;
52554;SDS011;38455;52.710;6.502;2023-05-07T14:01:27;18.67;;;15.35;;
52554;SDS011;38455;52.710;6.502;2023-05-07T14:03:53;18.40;;;15.30;;
52554;SDS011;38455;52.710;6.502;2023-05-07T14:06:19;19.15;;;14.95;;
52554;SDS011;38455;52.710;6.502;2023-05-07T14:08:44;16.98;;;14.93;;
52554;SDS011;38455;52.710;6.502;2023-05-07T14:11:10;17.25;;;15.30;;
52554;SDS011;38455;52.710;6.502;2023-05-07T14:13:36;19.02;;;15.35;;
52554;SDS011;38455;52.710;6.502;2023-05-07T14:16:02;16.83;;;14.25;;
52554;SDS011;38455;52.710;6.502;2023-05-07T14:18:29;20.13;;;15.25;;
52554;SDS011;38455;52.710;6.502;2023-05-07T14:20:54;15.77;;;13.18;;
52554;SDS011;38455;52.710;6.502;2023-05-07T14:23:20;17.13;;;13.10;;
52554;SDS011;38455;52.710;6.502;2023-05-07T14:25:51;17.60;;;13.40;;
52554;SDS011;38455;52.710;6.502;2023-05-07T14:28:21;16.27;;;13.70;;
52554;SDS011;38455;52.710;6.502;2023-05-07T14:30:47;16.35;;;13.88;;
52554;SDS011;38455;52.710;6.502;2023-05-07T14:33:13;15.57;;;13.45;;
52554;SDS011;38455;52.710;6.502;2023-05-07T14:35:38;15.75;;;12.45;;